Airfield :
LOGIN :

Register | Disclaimer

   EN    FR    IT 

 










Legend :    VFR   Marginal VFR   IFR   Intensive IFR   Very Intensive IFR
Visi :
Ceiling :
>= 8 km
>= 3000ft
5 to 8 km
1000 to 3000 ft
1500m to 5 km
500 to 1000 ft
800 to 1500m
200 to 500 ft
< 800m
< 200 ft
Symbols :   Thunderstorms  Fog  Heavy snow  Heavy precipitations  Wind > 20 kt
SIGMETs :     Misc.  Thunderstorms  Icing  Turbulence  Mountain Waves  Volcanic Ashes







- Airport Elevation : 147 ft
- IATA code : DUS


EDDL - Düsseldorf Int.

CURRENT METAR :
  • 221220Z 31009KT 280V340 9999 -SHRA SCT028 BKN060 14/10 Q1025 NOSIG

EXPIRED METARs :
  • 221150Z 29009KT 270V330 9999 -RA SCT028 BKN060 15/11 Q1025 NOSIG
  • 221120Z 31011KT 280V340 9999 -RA SCT025 BKN043 13/09 Q1025 NOSIG
  • 221050Z 30012KT 9999 SCT028 BKN046 14/09 Q1025 NOSIG
  • 221020Z 31008KT 270V330 9999 -RA BKN032 13/09 Q1025 NOSIG
  • 220950Z 31008KT 9999 -RA FEW026 BKN030 13/09 Q1025 NOSIG

TAF TAF EDDL
Valid from the 22 at 12:00 until the 23 at 18:00 UTC


221100Z 2212/2318 29010KT 9999 BKN030
PROB30
TEMPO 2212/2216 30015G25KT
BECMG 2220/2223 30005KT
BECMG 2305/2308 BKN012
TEMPO 2306/2309 4500 -DZRA BKN008
BECMG 2306/2309 31010KT
BECMG 2309/2312 BKN020
No reported NOTAMs for that airfield.



MET'MAP, your aeronautical weather chart ! - Copyright ORBIFLY December 2007 - Disclaimer

ORBIFLY MET'MAP TEAM :

Programming & Development : Alexandra Zaïnal
Concept & Development : Baudouin d'Aumeries
Co-Development & Prog : Marc-Olivier Méhu
Technical & hardware support : Manuel Goepfert

Contact : metmap@orbifly.com




SOURCES & CREDITS :

   NOAA